Terminal Aerodrome Forecast
Issued by NWS

Home | Current Version | Previous Version | Text Only | Print | Product List | Glossary Off
Versions: 1 2 3 4 5 6 7 8 9 10 11 12 13 14

161
FTUS43 KICT 212322
TAFCNU
TAF
KCNU 212322Z 2200/2224 11008KT P6SM SCT035
      TEMPO 2209/2213 BKN020
     FM221600 15010KT P6SM BKN035=

USA.gov is the U.S. government's official web portal to all federal, state and local government web resources and services.